Terminal Aerodrome Forecast
Issued by NWS Greer, SC

Home | Current Version | Previous Version | Text Only | Print | Product List | Glossary On
Versions: 1 2 3 4 5 6 7 8 9 10 11 12 13 14 15 16 17 18 19 20 21 22 23 24
000
FTUS42 KGSP 191100
TAFCLT
TAF
KCLT 191138Z 1912/2012 03012G18KT 4SM -RA BR OVC008
      TEMPO 1912/1915 3SM RA BR SCT008 OVC014
     FM191500 03014G24KT 3SM -RA BR OVC014
     FM200100 04014G22KT 6SM -RA BR OVC035
     FM200600 04012G20KT P6SM VCSH BKN050=

USA.gov is the U.S. government's official web portal to all federal, state and local government web resources and services.